createdAt,value
2019-03-08T00:02:41.868Z,69.10
2019-03-08T00:07:47.064Z,68.70
2019-03-08T00:12:52.122Z,69.00
2019-03-08T00:17:58.811Z,69.00
2019-03-08T00:23:05.074Z,69.50
2019-03-08T00:28:10.173Z,69.10
2019-03-08T00:33:15.374Z,68.20
2019-03-08T00:38:20.412Z,68.30
2019-03-08T00:43:25.310Z,67.90
2019-03-08T00:48:30.394Z,67.40
2019-03-08T00:53:35.311Z,67.10
2019-03-08T00:58:40.339Z,65.60
2019-03-08T01:03:45.286Z,65.80
2019-03-08T01:08:50.309Z,65.00
2019-03-08T01:13:55.338Z,64.70
2019-03-08T01:19:01.287Z,63.50
2019-03-08T01:24:06.326Z,62.60
2019-03-08T01:29:11.560Z,62.60
2019-03-08T01:34:16.221Z,63.10
2019-03-08T01:39:20.576Z,63.20
2019-03-08T01:44:25.315Z,63.50
2019-03-08T01:49:30.360Z,64.20
2019-03-08T01:54:35.337Z,65.00
2019-03-08T01:59:50.665Z,63.00
2019-03-08T02:04:55.543Z,63.00
2019-03-08T02:10:00.536Z,62.70
2019-03-08T02:15:06.082Z,63.60
2019-03-08T02:20:14.885Z,63.60
2019-03-08T02:25:20.018Z,63.60
2019-03-08T02:30:25.060Z,64.50
2019-03-08T02:35:30.022Z,64.30
2019-03-08T02:40:36.167Z,64.60
2019-03-08T02:45:41.556Z,65.20
2019-03-08T02:50:46.392Z,65.40
2019-03-08T02:55:50.853Z,65.30
2019-03-08T03:00:54.290Z,65.30
2019-03-08T03:05:58.218Z,65.40
2019-03-08T03:11:02.298Z,66.00
2019-03-08T03:16:16.325Z,65.40
2019-03-08T03:21:20.466Z,65.10
2019-03-08T03:26:24.669Z,65.30
2019-03-08T03:31:28.666Z,64.90
2019-03-08T03:36:32.900Z,64.50
2019-03-08T03:41:36.283Z,64.90
2019-03-08T03:46:40.226Z,64.00
2019-03-08T03:51:44.569Z,62.70
2019-03-08T03:56:48.764Z,62.30
2019-03-08T04:01:52.844Z,62.40
2019-03-08T04:06:57.079Z,62.20
2019-03-08T04:12:01.073Z,62.10
2019-03-08T04:17:05.226Z,61.70
2019-03-08T04:22:09.373Z,62.90
2019-03-08T04:27:13.774Z,63.40
2019-03-08T04:32:18.705Z,63.40
2019-03-08T04:37:23.710Z,62.70
2019-03-08T04:42:28.684Z,62.40
2019-03-08T04:47:33.422Z,61.90
2019-03-08T04:52:38.606Z,61.70
2019-03-08T04:57:43.599Z,61.60
2019-03-08T05:02:49.129Z,61.10
2019-03-08T05:07:54.240Z,61.90
2019-03-08T05:12:59.381Z,62.00
2019-03-08T05:18:05.048Z,62.30
2019-03-08T05:23:10.679Z,62.80
2019-03-08T05:28:15.669Z,62.40
2019-03-08T05:33:20.750Z,62.10
2019-03-08T05:38:26.672Z,61.80
2019-03-08T05:43:31.691Z,61.30
2019-03-08T05:48:37.114Z,60.40
2019-03-08T05:53:42.188Z,61.00
2019-03-08T05:58:46.627Z,61.00
2019-03-08T06:03:52.411Z,61.20
2019-03-08T06:08:57.886Z,61.40
2019-03-08T06:14:02.962Z,61.10
2019-03-08T06:19:09.062Z,61.70
2019-03-08T06:24:13.982Z,62.10
2019-03-08T06:29:19.040Z,62.50
2019-03-08T06:34:24.582Z,61.10
2019-03-08T06:39:29.349Z,60.60
2019-03-08T06:44:34.373Z,61.00
2019-03-08T06:49:39.993Z,60.20
2019-03-08T06:54:46.628Z,60.00
2019-03-08T07:00:09.936Z,60.20
2019-03-08T07:05:15.053Z,60.20
2019-03-08T07:10:20.736Z,59.20
2019-03-08T07:15:26.860Z,59.10
2019-03-08T07:20:41.562Z,58.70
2019-03-08T07:26:01.108Z,58.70
2019-03-08T07:31:25.808Z,58.70
2019-03-08T07:36:58.144Z,57.80
2019-03-08T07:42:26.627Z,58.20
2019-03-08T07:47:39.943Z,57.50
2019-03-08T07:53:18.447Z,57.20
2019-03-08T07:58:51.850Z,57.70
2019-03-08T08:04:17.471Z,57.20
2019-03-08T08:09:54.141Z,57.80
2019-03-08T08:15:17.716Z,57.60
2019-03-08T08:20:41.890Z,57.50
2019-03-08T08:26:06.898Z,58.00
2019-03-08T08:31:29.696Z,57.40
2019-03-08T08:36:49.706Z,57.90
2019-03-08T08:42:24.989Z,57.80
2019-03-08T08:47:50.261Z,57.80
2019-03-08T08:53:08.861Z,57.20
2019-03-08T08:58:41.325Z,58.40
2019-03-08T09:04:04.343Z,57.40
2019-03-08T09:09:35.872Z,57.10
2019-03-08T09:14:47.506Z,58.20
2019-03-08T09:20:14.201Z,57.70
2019-03-08T09:25:37.501Z,57.90
2019-03-08T09:30:58.785Z,58.10
2019-03-08T09:36:33.851Z,58.10
2019-03-08T09:42:05.664Z,58.90
2019-03-08T09:47:16.626Z,62.20
2019-03-08T09:52:40.831Z,65.80
2019-03-08T09:58:02.069Z,68.10
2019-03-08T10:03:40.577Z,69.00
2019-03-08T10:09:21.157Z,70.50
2019-03-08T10:14:50.205Z,72.20
2019-03-08T10:20:15.278Z,74.60
2019-03-08T10:25:41.340Z,74.20
2019-03-08T10:31:18.371Z,78.20
2019-03-08T10:36:32.269Z,77.80
2019-03-08T10:42:02.335Z,77.90
2019-03-08T10:47:24.749Z,77.60
2019-03-08T10:53:02.685Z,77.10
2019-03-08T10:58:31.917Z,76.10
2019-03-08T11:04:00.250Z,74.20
2019-03-08T11:09:27.655Z,71.90
2019-03-08T11:14:52.489Z,71.30
2019-03-08T11:20:15.289Z,71.90
2019-03-08T11:25:49.944Z,70.70
2019-03-08T11:31:20.900Z,70.20
2019-03-08T11:36:44.332Z,72.70
2019-03-08T11:42:11.900Z,74.00
2019-03-08T11:47:36.453Z,77.70
2019-03-08T11:53:01.909Z,81.50
2019-03-08T11:58:30.531Z,82.20
2019-03-08T12:03:49.143Z,82.90
2019-03-08T12:09:29.366Z,82.70
2019-03-08T12:14:55.822Z,80.70
2019-03-08T12:20:19.028Z,78.00
2019-03-08T12:25:43.425Z,76.90
2019-03-08T12:31:07.074Z,81.80
2019-03-08T12:36:36.283Z,76.80
2019-03-08T12:42:04.359Z,73.40
2019-03-08T12:47:30.886Z,71.90
2019-03-08T12:52:56.907Z,71.00
2019-03-08T12:58:37.435Z,70.40
2019-03-08T13:03:59.296Z,70.30
2019-03-08T13:09:31.015Z,69.40
2019-03-08T13:14:36.991Z,68.80
2019-03-08T13:19:41.856Z,67.40
2019-03-08T13:24:46.932Z,68.20
2019-03-08T13:29:52.537Z,67.80
2019-03-08T13:34:57.825Z,65.50
2019-03-08T13:40:02.713Z,65.00
2019-03-08T13:45:10.476Z,65.00
2019-03-08T13:50:15.768Z,65.30
2019-03-08T13:55:21.393Z,66.30
2019-03-08T14:00:28.074Z,64.10
2019-03-08T14:05:33.179Z,64.50
2019-03-08T14:10:38.160Z,62.90
2019-03-08T14:15:41.746Z,63.00
2019-03-08T14:20:45.294Z,66.20
2019-03-08T14:25:48.930Z,59.20
2019-03-08T14:31:18.489Z,57.90
2019-03-08T14:36:22.691Z,59.20
2019-03-08T14:41:43.057Z,58.00
2019-03-08T14:47:11.403Z,58.20
2019-03-08T14:52:16.001Z,58.10
2019-03-08T14:57:27.244Z,56.00
2019-03-08T15:02:28.434Z,57.90
2019-03-08T15:07:33.601Z,55.00
2019-03-08T15:12:48.302Z,54.40
2019-03-08T15:17:43.918Z,55.20
2019-03-08T15:22:49.612Z,56.40
2019-03-08T15:27:54.857Z,57.80
2019-03-08T15:33:01.200Z,56.20
2019-03-08T15:38:07.206Z,57.00
2019-03-08T15:43:13.581Z,55.20
2019-03-08T15:48:19.622Z,55.70
2019-03-08T15:53:24.689Z,54.80
2019-03-08T15:58:29.882Z,54.90
2019-03-08T16:03:36.364Z,53.90
2019-03-08T16:08:41.494Z,55.20
2019-03-08T16:13:46.956Z,55.70
2019-03-08T16:18:52.010Z,55.80
2019-03-08T16:23:57.131Z,56.30
2019-03-08T16:29:02.626Z,55.60
2019-03-08T16:34:09.489Z,55.70
2019-03-08T16:39:37.080Z,56.10
2019-03-08T16:45:05.818Z,54.70
2019-03-08T16:50:31.068Z,55.00
2019-03-08T16:55:51.995Z,54.10
2019-03-08T17:01:16.745Z,57.60
2019-03-08T17:06:33.083Z,56.40
2019-03-08T17:11:57.299Z,58.20
2019-03-08T17:17:26.052Z,61.90
2019-03-08T17:22:58.261Z,61.10
2019-03-08T17:28:23.715Z,63.90
2019-03-08T17:33:45.961Z,64.80
2019-03-08T17:39:10.324Z,64.70
2019-03-08T17:44:35.199Z,66.90
2019-03-08T17:50:15.998Z,64.00
2019-03-08T17:55:36.148Z,65.50
2019-03-08T18:00:49.065Z,64.30
2019-03-08T18:06:18.406Z,66.30
2019-03-08T18:11:54.415Z,67.30
2019-03-08T18:17:17.633Z,64.90
2019-03-08T18:22:43.541Z,68.50
2019-03-08T18:28:07.177Z,68.40
2019-03-08T18:33:35.768Z,67.30
2019-03-08T18:38:58.427Z,68.60
2019-03-08T18:44:23.400Z,67.20
2019-03-08T18:49:53.464Z,65.40
2019-03-08T18:55:23.919Z,66.70
2019-03-08T19:00:47.344Z,66.70
2019-03-08T19:06:08.188Z,65.10
2019-03-08T19:11:24.351Z,63.10
2019-03-08T19:16:48.428Z,61.70
2019-03-08T19:22:16.221Z,60.00
2019-03-08T19:27:46.823Z,59.30
2019-03-08T19:33:02.508Z,59.00
2019-03-08T19:38:31.003Z,58.70
2019-03-08T19:43:53.826Z,57.90
2019-03-08T19:49:17.312Z,56.30
2019-03-08T19:54:51.291Z,54.90
2019-03-08T20:00:14.646Z,54.30
2019-03-08T20:05:28.588Z,53.30
2019-03-08T20:11:02.771Z,53.50
2019-03-08T20:16:46.374Z,53.60
2019-03-08T20:22:09.407Z,53.40
2019-03-08T20:27:31.949Z,53.50
2019-03-08T20:33:11.025Z,53.80
2019-03-08T20:38:35.272Z,54.10
2019-03-08T20:43:56.413Z,53.90
2019-03-08T20:49:02.287Z,53.50
2019-03-08T20:54:08.251Z,53.90
2019-03-08T20:59:13.589Z,53.50
2019-03-08T21:04:18.752Z,53.60
2019-03-08T21:09:24.367Z,53.20
2019-03-08T21:14:29.136Z,54.10
2019-03-08T21:19:34.017Z,53.70
2019-03-08T21:24:38.948Z,52.70
2019-03-08T21:29:43.921Z,52.20
2019-03-08T21:34:48.936Z,52.60
2019-03-08T21:39:53.765Z,52.20
2019-03-08T21:44:59.165Z,51.80
2019-03-08T21:50:05.175Z,51.40
2019-03-08T21:55:13.385Z,51.30
2019-03-08T22:00:20.272Z,50.90
2019-03-08T22:05:29.985Z,50.90
2019-03-08T22:10:47.647Z,51.00
2019-03-08T22:15:51.709Z,50.50
2019-03-08T22:20:56.649Z,52.20
2019-03-08T22:26:00.693Z,52.20
2019-03-08T22:31:06.171Z,52.80
2019-03-08T22:36:10.250Z,53.00
2019-03-08T22:41:13.785Z,53.20
2019-03-08T22:46:18.466Z,53.20
2019-03-08T22:51:21.963Z,52.90
2019-03-08T22:56:38.963Z,52.70
2019-03-08T23:01:51.270Z,53.20
2019-03-08T23:06:56.479Z,53.60
2019-03-08T23:12:01.703Z,52.20
2019-03-08T23:17:06.783Z,52.10
2019-03-08T23:22:11.880Z,52.10
2019-03-08T23:27:34.361Z,51.90
2019-03-08T23:32:44.212Z,51.70
2019-03-08T23:37:49.239Z,51.90
2019-03-08T23:42:55.495Z,52.50
2019-03-08T23:48:00.673Z,52.80
2019-03-08T23:53:06.480Z,52.90
2019-03-08T23:58:12.851Z,53.00
